PWSweather.com
Personal Weather Stations
Station Observations
AZALEAPK1
San Diego, CA 92105

San Diego, CA 92105

Lat: 32.736, Lon: -117.108

Elevation: 302

Station Type: LaCrosse WS-2813U-IT

High Low Average
Temperature 76.3°F24.6°C 68.4°F20.2°C 71.3°F21.8°C
Dew Point -- -- --
Winds 10.1 mph 16.3 kmh Calm Calm 3.0 mph NNE4.8 kmh NNE
Wind Gusts 12.1 mph19.5 kmh -- 5.0 mph8.0 kmh
Humidity - - -
Pressure 29.96 in1014.6 mb 29.81 in1009.5 mb -
Precipitation 0.01 in0.3 mm - -
Hour Temp Dew Point Humidity Winds Wind Gusts Pressure Precip Precip Rate Daily Precip Total
12:02 AM 69.8°F21.0°C -- - 0.3 mph NNE0.5 kmh NNE 0.4 mph0.6 kmh 29.83 in1010.2 mb 0.00 in0.0 mm 0.00 in0.0 mm 0.00 in0.0 mm
12:07 AM 69.8°F21.0°C -- - Calm Calm 0.4 mph0.6 kmh 29.83 in1010.2 mb 0.00 in0.0 mm 0.00 in0.0 mm 0.00 in0.0 mm
12:13 AM 69.7°F20.9°C -- - Calm Calm -- 29.83 in1010.2 mb 0.00 in0.0 mm 0.00 in0.0 mm 0.00 in0.0 mm
12:18 AM 69.7°F20.9°C -- - 0.2 mph NNE0.3 kmh NNE 0.4 mph0.6 kmh 29.83 in1010.2 mb 0.00 in0.0 mm 0.00 in0.0 mm 0.00 in0.0 mm
12:25 AM 69.8°F21.0°C -- - 0.4 mph NNE0.6 kmh NNE 0.9 mph1.4 kmh 29.83 in1010.2 mb 0.00 in0.0 mm 0.00 in0.0 mm 0.00 in0.0 mm
12:30 AM 69.7°F20.9°C -- - Calm Calm 0.9 mph1.4 kmh 29.83 in1010.2 mb 0.00 in0.0 mm 0.00 in0.0 mm 0.00 in0.0 mm
12:35 AM 69.8°F21.0°C -- - 0.1 mph NNE0.2 kmh NNE 0.4 mph0.6 kmh 29.82 in1009.8 mb 0.00 in0.0 mm 0.00 in0.0 mm 0.00 in0.0 mm
12:40 AM 69.8°F21.0°C -- - Calm Calm 0.2 mph0.3 kmh 29.82 in1009.8 mb 0.00 in0.0 mm 0.00 in0.0 mm 0.00 in0.0 mm
12:46 AM 69.8°F21.0°C -- - 0.4 mph NNE0.6 kmh NNE 0.4 mph0.6 kmh 29.82 in1009.8 mb 0.00 in0.0 mm 0.00 in0.0 mm 0.00 in0.0 mm
12:51 AM 69.8°F21.0°C -- - 0.3 mph NNE0.5 kmh NNE 0.4 mph0.6 kmh 29.82 in1009.8 mb 0.00 in0.0 mm 0.00 in0.0 mm 0.00 in0.0 mm
12:57 AM 69.8°F21.0°C -- - Calm Calm 0.4 mph0.6 kmh 29.82 in1009.8 mb 0.00 in0.0 mm 0.00 in0.0 mm 0.00 in0.0 mm
01:02 AM 69.8°F21.0°C -- - 0.7 mph NNE1.1 kmh NNE 0.7 mph1.1 kmh 29.82 in1009.8 mb 0.00 in0.0 mm 0.00 in0.0 mm 0.00 in0.0 mm
01:07 AM 69.8°F21.0°C -- - 0.7 mph NNE1.1 kmh NNE 0.7 mph1.1 kmh 29.82 in1009.8 mb 0.00 in0.0 mm 0.00 in0.0 mm 0.00 in0.0 mm
01:12 AM 69.7°F20.9°C -- - Calm Calm 0.7 mph1.1 kmh 29.82 in1009.8 mb 0.00 in0.0 mm 0.00 in0.0 mm 0.00 in0.0 mm
01:17 AM 69.5°F20.8°C -- - 0.5 mph NNE0.8 kmh NNE 1.3 mph2.1 kmh 29.82 in1009.8 mb 0.00 in0.0 mm 0.00 in0.0 mm 0.00 in0.0 mm
01:22 AM 69.5°F20.8°C -- - 0.4 mph NNE0.6 kmh NNE 1.3 mph2.1 kmh 29.82 in1009.8 mb 0.00 in0.0 mm 0.00 in0.0 mm 0.00 in0.0 mm
01:27 AM 69.5°F20.8°C -- - 0.2 mph NNE0.3 kmh NNE 1.3 mph2.1 kmh 29.81 in1009.5 mb 0.00 in0.0 mm 0.00 in0.0 mm 0.00 in0.0 mm
01:32 AM 69.3°F20.7°C -- - 0.7 mph NNE1.1 kmh NNE 1.3 mph2.1 kmh 29.82 in1009.8 mb 0.00 in0.0 mm 0.00 in0.0 mm 0.00 in0.0 mm
01:39 AM 69.3°F20.7°C -- - 0.5 mph NNE0.8 kmh NNE 1.3 mph2.1 kmh 29.82 in1009.8 mb 0.00 in0.0 mm 0.00 in0.0 mm 0.00 in0.0 mm
01:47 AM 69.5°F20.8°C -- - 0.8 mph NNE1.3 kmh NNE 3.1 mph5.0 kmh 29.82 in1009.8 mb 0.00 in0.0 mm 0.00 in0.0 mm 0.00 in0.0 mm
01:54 AM 69.3°F20.7°C -- - 1.4 mph NNE2.3 kmh NNE 3.1 mph5.0 kmh 29.82 in1009.8 mb 0.00 in0.0 mm 0.00 in0.0 mm 0.00 in0.0 mm
02:01 AM 69.3°F20.7°C -- - 0.7 mph NNE1.1 kmh NNE 3.1 mph5.0 kmh 29.81 in1009.5 mb 0.00 in0.0 mm 0.00 in0.0 mm 0.00 in0.0 mm
02:06 AM 69.1°F20.6°C -- - 0.6 mph NNE1.0 kmh NNE 3.1 mph5.0 kmh 29.81 in1009.5 mb 0.00 in0.0 mm 0.00 in0.0 mm 0.00 in0.0 mm
02:11 AM 68.9°F20.5°C -- - 2.7 mph NNE4.3 kmh NNE 4.0 mph6.4 kmh 29.81 in1009.5 mb 0.00 in0.0 mm 0.00 in0.0 mm 0.00 in0.0 mm
02:16 AM 68.8°F20.4°C -- - 1.9 mph NNE3.1 kmh NNE 4.5 mph7.2 kmh 29.81 in1009.5 mb 0.00 in0.0 mm 0.00 in0.0 mm 0.00 in0.0 mm
02:21 AM 68.8°F20.4°C -- - 1.9 mph NNE3.1 kmh NNE 4.5 mph7.2 kmh 29.81 in1009.5 mb 0.00 in0.0 mm 0.00 in0.0 mm 0.00 in0.0 mm
02:26 AM 68.6°F20.3°C -- - 1.4 mph NNE2.3 kmh NNE 3.6 mph5.8 kmh 29.81 in1009.5 mb 0.00 in0.0 mm 0.00 in0.0 mm 0.00 in0.0 mm
02:31 AM 68.6°F20.3°C -- - 1.3 mph NNE2.1 kmh NNE 2.5 mph4.0 kmh 29.81 in1009.5 mb 0.00 in0.0 mm 0.00 in0.0 mm 0.00 in0.0 mm
02:36 AM 68.6°F20.3°C -- - 2.2 mph NNE3.5 kmh NNE 2.5 mph4.0 kmh 29.82 in1009.8 mb 0.00 in0.0 mm 0.00 in0.0 mm 0.00 in0.0 mm
02:44 AM 68.6°F20.3°C -- - 0.4 mph NNE0.6 kmh NNE 2.5 mph4.0 kmh 29.83 in1010.2 mb 0.00 in0.0 mm 0.00 in0.0 mm 0.00 in0.0 mm
02:49 AM 68.6°F20.3°C -- - 1.1 mph NNE1.8 kmh NNE 2.5 mph4.0 kmh 29.82 in1009.8 mb 0.00 in0.0 mm 0.00 in0.0 mm 0.00 in0.0 mm
02:54 AM 68.6°F20.3°C -- - 1.8 mph NNE2.9 kmh NNE 2.9 mph4.7 kmh 29.82 in1009.8 mb 0.00 in0.0 mm 0.00 in0.0 mm 0.00 in0.0 mm
02:59 AM 68.6°F20.3°C -- - 0.5 mph NNE0.8 kmh NNE 2.9 mph4.7 kmh 29.82 in1009.8 mb 0.00 in0.0 mm 0.00 in0.0 mm 0.00 in0.0 mm
03:03 AM 68.4°F20.2°C -- - 1.7 mph NNE2.7 kmh NNE 2.0 mph3.2 kmh 29.82 in1009.8 mb 0.00 in0.0 mm 0.00 in0.0 mm 0.00 in0.0 mm
03:08 AM 68.4°F20.2°C -- - 1.3 mph NNE2.1 kmh NNE 3.4 mph5.5 kmh 29.82 in1009.8 mb 0.00 in0.0 mm 0.00 in0.0 mm 0.00 in0.0 mm
03:13 AM 68.4°F20.2°C -- - 1.1 mph NNE1.8 kmh NNE 3.4 mph5.5 kmh 29.82 in1009.8 mb 0.00 in0.0 mm 0.00 in0.0 mm 0.00 in0.0 mm
03:19 AM 68.4°F20.2°C -- - 2.3 mph NNE3.7 kmh NNE 4.9 mph7.9 kmh 29.83 in1010.2 mb 0.00 in0.0 mm 0.00 in0.0 mm 0.00 in0.0 mm
03:24 AM 68.4°F20.2°C -- - 1.4 mph NNE2.3 kmh NNE 4.9 mph7.9 kmh 29.83 in1010.2 mb 0.00 in0.0 mm 0.00 in0.0 mm 0.00 in0.0 mm
03:29 AM 68.4°F20.2°C -- - 2.1 mph NNE3.4 kmh NNE 3.1 mph5.0 kmh 29.83 in1010.2 mb 0.00 in0.0 mm 0.00 in0.0 mm 0.00 in0.0 mm
03:34 AM 68.4°F20.2°C -- - 0.7 mph NNE1.1 kmh NNE 3.1 mph5.0 kmh 29.82 in1009.8 mb 0.00 in0.0 mm 0.00 in0.0 mm 0.00 in0.0 mm
03:39 AM 68.4°F20.2°C -- - 0.5 mph NNE0.8 kmh NNE 3.1 mph5.0 kmh 29.82 in1009.8 mb 0.00 in0.0 mm 0.00 in0.0 mm 0.00 in0.0 mm
03:44 AM 68.4°F20.2°C -- - Calm Calm 1.3 mph2.1 kmh 29.83 in1010.2 mb 0.00 in0.0 mm 0.00 in0.0 mm 0.00 in0.0 mm
03:50 AM 68.4°F20.2°C -- - 0.4 mph NNE0.6 kmh NNE 0.4 mph0.6 kmh 29.83 in1010.2 mb 0.00 in0.0 mm 0.00 in0.0 mm 0.00 in0.0 mm
03:55 AM 68.4°F20.2°C -- - 2.5 mph NNE4.0 kmh NNE 2.5 mph4.0 kmh 29.83 in1010.2 mb 0.00 in0.0 mm 0.00 in0.0 mm 0.00 in0.0 mm
04:00 AM 68.4°F20.2°C -- - 2.2 mph NNE3.5 kmh NNE 4.0 mph6.4 kmh 29.83 in1010.2 mb 0.00 in0.0 mm 0.00 in0.0 mm 0.00 in0.0 mm
04:06 AM 68.4°F20.2°C -- - 0.2 mph NNE0.3 kmh NNE 4.0 mph6.4 kmh 29.83 in1010.2 mb 0.00 in0.0 mm 0.00 in0.0 mm 0.00 in0.0 mm
04:11 AM 68.4°F20.2°C -- - 1.3 mph NNE2.1 kmh NNE 3.6 mph5.8 kmh 29.83 in1010.2 mb 0.00 in0.0 mm 0.00 in0.0 mm 0.00 in0.0 mm
04:19 AM 68.4°F20.2°C -- - 1.6 mph NNE2.6 kmh NNE 3.6 mph5.8 kmh 29.82 in1009.8 mb 0.00 in0.0 mm 0.00 in0.0 mm 0.00 in0.0 mm
04:25 AM 68.4°F20.2°C -- - 1.8 mph NNE2.9 kmh NNE 3.1 mph5.0 kmh 29.83 in1010.2 mb 0.00 in0.0 mm 0.00 in0.0 mm 0.00 in0.0 mm
04:30 AM 68.4°F20.2°C -- - 2.0 mph NNE3.2 kmh NNE 2.7 mph4.3 kmh 29.83 in1010.2 mb 0.00 in0.0 mm 0.00 in0.0 mm 0.00 in0.0 mm
04:37 AM 68.4°F20.2°C -- - 1.8 mph NNE2.9 kmh NNE 2.7 mph4.3 kmh 29.82 in1009.8 mb 0.00 in0.0 mm 0.00 in0.0 mm 0.00 in0.0 mm
04:42 AM 68.6°F20.3°C -- - 0.8 mph NNE1.3 kmh NNE 2.7 mph4.3 kmh 29.82 in1009.8 mb 0.00 in0.0 mm 0.00 in0.0 mm 0.00 in0.0 mm
04:47 AM 68.6°F20.3°C -- - 0.4 mph NNE0.6 kmh NNE 2.5 mph4.0 kmh 29.83 in1010.2 mb 0.00 in0.0 mm 0.00 in0.0 mm 0.00 in0.0 mm
04:56 AM 68.6°F20.3°C -- - 0.7 mph NNE1.1 kmh NNE 0.9 mph1.4 kmh 29.83 in1010.2 mb 0.00 in0.0 mm 0.00 in0.0 mm 0.00 in0.0 mm
05:01 AM 68.8°F20.4°C -- - 0.1 mph NNE0.2 kmh NNE 0.9 mph1.4 kmh 29.83 in1010.2 mb 0.00 in0.0 mm 0.00 in0.0 mm 0.00 in0.0 mm
05:08 AM 68.8°F20.4°C -- - 0.3 mph NNE0.5 kmh NNE 0.9 mph1.4 kmh 29.83 in1010.2 mb 0.00 in0.0 mm 0.00 in0.0 mm 0.00 in0.0 mm
05:13 AM 68.8°F20.4°C -- - 1.0 mph NNE1.6 kmh NNE 1.8 mph2.9 kmh 29.84 in1010.5 mb 0.00 in0.0 mm 0.00 in0.0 mm 0.00 in0.0 mm
05:18 AM 68.8°F20.4°C -- - 2.5 mph NNE4.0 kmh NNE 2.5 mph4.0 kmh 29.84 in1010.5 mb 0.00 in0.0 mm 0.00 in0.0 mm 0.00 in0.0 mm
05:24 AM 68.8°F20.4°C -- - 0.6 mph NNE1.0 kmh NNE 2.5 mph4.0 kmh 29.83 in1010.2 mb 0.00 in0.0 mm 0.00 in0.0 mm 0.00 in0.0 mm
05:29 AM 68.8°F20.4°C -- - 0.6 mph NNE1.0 kmh NNE 1.6 mph2.6 kmh 29.83 in1010.2 mb 0.00 in0.0 mm 0.00 in0.0 mm 0.00 in0.0 mm
05:35 AM 68.8°F20.4°C -- - 0.6 mph NNE1.0 kmh NNE 2.0 mph3.2 kmh 29.83 in1010.2 mb 0.00 in0.0 mm 0.00 in0.0 mm 0.00 in0.0 mm
05:42 AM 68.8°F20.4°C -- - 0.6 mph NNE1.0 kmh NNE 1.8 mph2.9 kmh 29.84 in1010.5 mb 0.00 in0.0 mm 0.00 in0.0 mm 0.00 in0.0 mm
05:47 AM 68.8°F20.4°C -- - 1.6 mph NNE2.6 kmh NNE 1.8 mph2.9 kmh 29.84 in1010.5 mb 0.00 in0.0 mm 0.00 in0.0 mm 0.00 in0.0 mm
05:52 AM 68.8°F20.4°C -- - 0.7 mph NNE1.1 kmh NNE 1.6 mph2.6 kmh 29.84 in1010.5 mb 0.00 in0.0 mm 0.00 in0.0 mm 0.00 in0.0 mm
05:57 AM 68.8°F20.4°C -- - Calm Calm 0.9 mph1.4 kmh 29.84 in1010.5 mb 0.00 in0.0 mm 0.00 in0.0 mm 0.00 in0.0 mm
06:03 AM 68.8°F20.4°C -- - 0.2 mph NNE0.3 kmh NNE 0.4 mph0.6 kmh 29.84 in1010.5 mb 0.00 in0.0 mm 0.00 in0.0 mm 0.00 in0.0 mm
06:08 AM 68.8°F20.4°C -- - 1.2 mph NNE1.9 kmh NNE 1.6 mph2.6 kmh 29.84 in1010.5 mb 0.00 in0.0 mm 0.00 in0.0 mm 0.00 in0.0 mm
06:13 AM 68.8°F20.4°C -- - 2.1 mph NNE3.4 kmh NNE 2.2 mph3.5 kmh 29.83 in1010.2 mb 0.00 in0.0 mm 0.00 in0.0 mm 0.00 in0.0 mm
06:18 AM 68.8°F20.4°C -- - 2.1 mph NNE3.4 kmh NNE 2.9 mph4.7 kmh 29.84 in1010.5 mb 0.00 in0.0 mm 0.00 in0.0 mm 0.00 in0.0 mm
06:24 AM 68.9°F20.5°C -- - 1.1 mph NNE1.8 kmh NNE 2.9 mph4.7 kmh 29.84 in1010.5 mb 0.00 in0.0 mm 0.00 in0.0 mm 0.00 in0.0 mm
06:29 AM 68.9°F20.5°C -- - 0.1 mph NNE0.2 kmh NNE 2.9 mph4.7 kmh 29.84 in1010.5 mb 0.00 in0.0 mm 0.00 in0.0 mm 0.00 in0.0 mm
06:35 AM 69.1°F20.6°C -- - 0.4 mph NNE0.6 kmh NNE 1.8 mph2.9 kmh 29.85 in1010.8 mb 0.00 in0.0 mm 0.00 in0.0 mm 0.00 in0.0 mm
06:40 AM 69.1°F20.6°C -- - 0.4 mph NNE0.6 kmh NNE 1.8 mph2.9 kmh 29.85 in1010.8 mb 0.00 in0.0 mm 0.00 in0.0 mm 0.00 in0.0 mm
06:47 AM 69.3°F20.7°C -- - 0.7 mph NNE1.1 kmh NNE 1.8 mph2.9 kmh 29.85 in1010.8 mb 0.00 in0.0 mm 0.00 in0.0 mm 0.00 in0.0 mm
06:52 AM 69.5°F20.8°C -- - 1.6 mph NNE2.6 kmh NNE 4.5 mph7.2 kmh 29.85 in1010.8 mb 0.00 in0.0 mm 0.00 in0.0 mm 0.00 in0.0 mm
06:59 AM 69.7°F20.9°C -- - 0.6 mph NNE1.0 kmh NNE 4.5 mph7.2 kmh 29.85 in1010.8 mb 0.00 in0.0 mm 0.00 in0.0 mm 0.00 in0.0 mm
07:04 AM 70.0°F21.1°C -- - 1.0 mph NNE1.6 kmh NNE 2.7 mph4.3 kmh 29.86 in1011.2 mb 0.00 in0.0 mm 0.00 in0.0 mm 0.00 in0.0 mm
07:09 AM 70.0°F21.1°C -- - 1.7 mph NNE2.7 kmh NNE 2.7 mph4.3 kmh 29.85 in1010.8 mb 0.00 in0.0 mm 0.00 in0.0 mm 0.00 in0.0 mm
07:14 AM 70.2°F21.2°C -- - 1.8 mph NNE2.9 kmh NNE 4.7 mph7.6 kmh 29.85 in1010.8 mb 0.00 in0.0 mm 0.00 in0.0 mm 0.00 in0.0 mm
07:19 AM 70.4°F21.3°C -- - 2.7 mph NNE4.3 kmh NNE 4.7 mph7.6 kmh 29.86 in1011.2 mb 0.00 in0.0 mm 0.00 in0.0 mm 0.00 in0.0 mm
07:24 AM 70.6°F21.4°C -- - 0.1 mph NNE0.2 kmh NNE 2.9 mph4.7 kmh 29.85 in1010.8 mb 0.00 in0.0 mm 0.00 in0.0 mm 0.00 in0.0 mm
07:29 AM 70.9°F21.6°C -- - 0.3 mph NNE0.5 kmh NNE 3.4 mph5.5 kmh 29.86 in1011.2 mb 0.00 in0.0 mm 0.00 in0.0 mm 0.00 in0.0 mm
07:34 AM 70.9°F21.6°C -- - 2.5 mph NNE4.0 kmh NNE 3.4 mph5.5 kmh 29.86 in1011.2 mb 0.00 in0.0 mm 0.00 in0.0 mm 0.00 in0.0 mm
07:39 AM 71.1°F21.7°C -- - 1.1 mph NNE1.8 kmh NNE 3.4 mph5.5 kmh 29.86 in1011.2 mb 0.00 in0.0 mm 0.00 in0.0 mm 0.00 in0.0 mm
07:44 AM 71.1°F21.7°C -- - 0.7 mph NNE1.1 kmh NNE 2.5 mph4.0 kmh 29.87 in1011.5 mb 0.00 in0.0 mm 0.00 in0.0 mm 0.00 in0.0 mm
07:50 AM 71.1°F21.7°C -- - 4.0 mph NNE6.4 kmh NNE 4.0 mph6.4 kmh 29.87 in1011.5 mb 0.00 in0.0 mm 0.00 in0.0 mm 0.00 in0.0 mm
07:55 AM 71.3°F21.8°C -- - 3.2 mph NNE5.1 kmh NNE 4.0 mph6.4 kmh 29.87 in1011.5 mb 0.00 in0.0 mm 0.00 in0.0 mm 0.00 in0.0 mm
08:01 AM 71.5°F21.9°C -- - 1.6 mph NNE2.6 kmh NNE 4.0 mph6.4 kmh 29.87 in1011.5 mb 0.00 in0.0 mm 0.00 in0.0 mm 0.00 in0.0 mm
08:06 AM 71.3°F21.8°C -- - 2.7 mph NNE4.3 kmh NNE 3.4 mph5.5 kmh 29.87 in1011.5 mb 0.00 in0.0 mm 0.00 in0.0 mm 0.00 in0.0 mm
08:11 AM 71.3°F21.8°C -- - 3.6 mph NNE5.8 kmh NNE 4.3 mph6.9 kmh 29.87 in1011.5 mb 0.00 in0.0 mm 0.00 in0.0 mm 0.00 in0.0 mm
08:17 AM 71.3°F21.8°C -- - 3.7 mph NNE6.0 kmh NNE 5.1 mph8.2 kmh 29.87 in1011.5 mb 0.00 in0.0 mm 0.00 in0.0 mm 0.00 in0.0 mm
08:22 AM 71.1°F21.7°C -- - 4.0 mph NNE6.4 kmh NNE 5.1 mph8.2 kmh 29.87 in1011.5 mb 0.00 in0.0 mm 0.00 in0.0 mm 0.00 in0.0 mm
08:27 AM 71.3°F21.8°C -- - 3.1 mph NNE5.0 kmh NNE 4.0 mph6.4 kmh 29.87 in1011.5 mb 0.00 in0.0 mm 0.00 in0.0 mm 0.00 in0.0 mm
08:33 AM 71.3°F21.8°C -- - 1.8 mph NNE2.9 kmh NNE 4.0 mph6.4 kmh 29.88 in1011.9 mb 0.00 in0.0 mm 0.00 in0.0 mm 0.00 in0.0 mm
08:40 AM 71.3°F21.8°C -- - 5.1 mph NNE8.2 kmh NNE 6.3 mph10.1 kmh 29.87 in1011.5 mb 0.00 in0.0 mm 0.00 in0.0 mm 0.00 in0.0 mm
08:45 AM 71.3°F21.8°C -- - 3.4 mph NNE5.5 kmh NNE 6.3 mph10.1 kmh 29.88 in1011.9 mb 0.00 in0.0 mm 0.00 in0.0 mm 0.00 in0.0 mm
08:50 AM 71.3°F21.8°C -- - 1.1 mph NNE1.8 kmh NNE 5.1 mph8.2 kmh 29.88 in1011.9 mb 0.00 in0.0 mm 0.00 in0.0 mm 0.00 in0.0 mm
08:55 AM 71.3°F21.8°C -- - 4.0 mph NNE6.4 kmh NNE 5.4 mph8.7 kmh 29.87 in1011.5 mb 0.00 in0.0 mm 0.00 in0.0 mm 0.00 in0.0 mm
09:00 AM 71.6°F22.0°C -- - 2.5 mph NNE4.0 kmh NNE 6.7 mph10.8 kmh 29.87 in1011.5 mb 0.00 in0.0 mm 0.00 in0.0 mm 0.00 in0.0 mm
09:04 AM 71.8°F22.1°C -- - 4.3 mph NNE6.9 kmh NNE 6.7 mph10.8 kmh 29.88 in1011.9 mb 0.00 in0.0 mm 0.00 in0.0 mm 0.00 in0.0 mm
09:09 AM 72.0°F22.2°C -- - 3.5 mph NNE5.6 kmh NNE 6.3 mph10.1 kmh 29.88 in1011.9 mb 0.00 in0.0 mm 0.00 in0.0 mm 0.00 in0.0 mm
09:14 AM 72.0°F22.2°C -- - 2.4 mph NNE3.9 kmh NNE 6.3 mph10.1 kmh 29.87 in1011.5 mb 0.00 in0.0 mm 0.00 in0.0 mm 0.00 in0.0 mm
09:20 AM 72.0°F22.2°C -- - 2.2 mph NNE3.5 kmh NNE 3.8 mph6.1 kmh 29.88 in1011.9 mb 0.00 in0.0 mm 0.00 in0.0 mm 0.00 in0.0 mm
09:25 AM 72.4°F22.4°C -- - 4.2 mph NNE6.8 kmh NNE 7.4 mph11.9 kmh 29.88 in1011.9 mb 0.00 in0.0 mm 0.00 in0.0 mm 0.00 in0.0 mm
09:30 AM 72.4°F22.4°C -- - 4.3 mph NNE6.9 kmh NNE 7.4 mph11.9 kmh 29.88 in1011.9 mb 0.00 in0.0 mm 0.00 in0.0 mm 0.00 in0.0 mm
09:36 AM 72.2°F22.3°C -- - 2.9 mph NNE4.7 kmh NNE 5.4 mph8.7 kmh 29.88 in1011.9 mb 0.00 in0.0 mm 0.00 in0.0 mm 0.00 in0.0 mm
09:41 AM 72.0°F22.2°C -- - 4.4 mph NNE7.1 kmh NNE 5.1 mph8.2 kmh 29.88 in1011.9 mb 0.00 in0.0 mm 0.00 in0.0 mm 0.00 in0.0 mm
09:47 AM 72.4°F22.4°C -- - 3.0 mph NNE4.8 kmh NNE 5.1 mph8.2 kmh 29.88 in1011.9 mb 0.00 in0.0 mm 0.00 in0.0 mm 0.00 in0.0 mm
09:53 AM 72.7°F22.6°C -- - 3.6 mph NNE5.8 kmh NNE 5.1 mph8.2 kmh 29.87 in1011.5 mb 0.00 in0.0 mm 0.00 in0.0 mm 0.00 in0.0 mm
09:59 AM 72.7°F22.6°C -- - 8.5 mph NNE13.7 kmh NNE 8.9 mph14.3 kmh 29.88 in1011.9 mb 0.00 in0.0 mm 0.00 in0.0 mm 0.00 in0.0 mm
10:04 AM 72.7°F22.6°C -- - 6.7 mph NNE10.8 kmh NNE 8.9 mph14.3 kmh 29.88 in1011.9 mb 0.00 in0.0 mm 0.00 in0.0 mm 0.00 in0.0 mm
10:09 AM 72.9°F22.7°C -- - 6.4 mph NNE10.3 kmh NNE 9.6 mph15.4 kmh 29.88 in1011.9 mb 0.00 in0.0 mm 0.00 in0.0 mm 0.00 in0.0 mm
10:14 AM 72.7°F22.6°C -- - 4.5 mph NNE7.2 kmh NNE 9.6 mph15.4 kmh 29.87 in1011.5 mb 0.00 in0.0 mm 0.00 in0.0 mm 0.00 in0.0 mm
10:20 AM 72.9°F22.7°C -- - 5.2 mph NNE8.4 kmh NNE 7.4 mph11.9 kmh 29.87 in1011.5 mb 0.00 in0.0 mm 0.00 in0.0 mm 0.00 in0.0 mm
10:25 AM 73.1°F22.8°C -- - 4.4 mph NNE7.1 kmh NNE 6.0 mph9.7 kmh 29.88 in1011.9 mb 0.00 in0.0 mm 0.00 in0.0 mm 0.00 in0.0 mm
10:30 AM 73.3°F22.9°C -- - 6.9 mph NNE11.1 kmh NNE 6.9 mph11.1 kmh 29.88 in1011.9 mb 0.00 in0.0 mm 0.00 in0.0 mm 0.00 in0.0 mm
10:36 AM 73.1°F22.8°C -- - 4.4 mph NNE7.1 kmh NNE 6.9 mph11.1 kmh 29.88 in1011.9 mb 0.00 in0.0 mm 0.00 in0.0 mm 0.00 in0.0 mm
10:41 AM 73.1°F22.8°C -- - 5.3 mph NNE8.5 kmh NNE 7.8 mph12.6 kmh 29.87 in1011.5 mb 0.00 in0.0 mm 0.00 in0.0 mm 0.00 in0.0 mm
10:46 AM 73.3°F22.9°C -- - 4.2 mph NNE6.8 kmh NNE 8.5 mph13.7 kmh 29.87 in1011.5 mb 0.00 in0.0 mm 0.00 in0.0 mm 0.00 in0.0 mm
10:51 AM 73.3°F22.9°C -- - 2.5 mph NNE4.0 kmh NNE 8.5 mph13.7 kmh 29.87 in1011.5 mb 0.00 in0.0 mm 0.00 in0.0 mm 0.00 in0.0 mm
10:56 AM 73.1°F22.8°C -- - 5.6 mph NNE9.0 kmh NNE 5.6 mph9.0 kmh 29.87 in1011.5 mb 0.00 in0.0 mm 0.00 in0.0 mm 0.00 in0.0 mm
11:02 AM 73.3°F22.9°C -- - 5.1 mph NNE8.2 kmh NNE 6.0 mph9.7 kmh 29.86 in1011.2 mb 0.00 in0.0 mm 0.00 in0.0 mm 0.00 in0.0 mm
11:07 AM 73.3°F22.9°C -- - 4.6 mph NNE7.4 kmh NNE 7.2 mph11.6 kmh 29.87 in1011.5 mb 0.00 in0.0 mm 0.00 in0.0 mm 0.00 in0.0 mm
11:12 AM 73.4°F23.0°C -- - 5.4 mph NNE8.7 kmh NNE 7.2 mph11.6 kmh 29.86 in1011.2 mb 0.00 in0.0 mm 0.00 in0.0 mm 0.00 in0.0 mm
11:18 AM 73.8°F23.2°C -- - 4.4 mph NNE7.1 kmh NNE 5.8 mph9.3 kmh 29.86 in1011.2 mb 0.00 in0.0 mm 0.00 in0.0 mm 0.00 in0.0 mm
11:23 AM 73.8°F23.2°C -- - 1.7 mph NNE2.7 kmh NNE 5.4 mph8.7 kmh 29.86 in1011.2 mb 0.00 in0.0 mm 0.00 in0.0 mm 0.00 in0.0 mm
11:28 AM 74.0°F23.3°C -- - 6.4 mph NNE10.3 kmh NNE 6.9 mph11.1 kmh 29.86 in1011.2 mb 0.00 in0.0 mm 0.00 in0.0 mm 0.00 in0.0 mm
11:34 AM 74.2°F23.4°C -- - 4.4 mph NNE7.1 kmh NNE 6.9 mph11.1 kmh 29.86 in1011.2 mb 0.00 in0.0 mm 0.00 in0.0 mm 0.00 in0.0 mm
11:40 AM 74.5°F23.6°C -- - 6.4 mph NNE10.3 kmh NNE 8.5 mph13.7 kmh 29.86 in1011.2 mb 0.00 in0.0 mm 0.00 in0.0 mm 0.00 in0.0 mm
11:46 AM 74.3°F23.5°C -- - 6.8 mph NNE10.9 kmh NNE 8.5 mph13.7 kmh 29.86 in1011.2 mb 0.00 in0.0 mm 0.00 in0.0 mm 0.00 in0.0 mm
11:51 AM 74.2°F23.4°C -- - 1.8 mph NNE2.9 kmh NNE 7.2 mph11.6 kmh 29.86 in1011.2 mb 0.00 in0.0 mm 0.00 in0.0 mm 0.00 in0.0 mm
11:56 AM 74.3°F23.5°C -- - 5.1 mph NNE8.2 kmh NNE 7.2 mph11.6 kmh 29.85 in1010.8 mb 0.00 in0.0 mm 0.00 in0.0 mm 0.00 in0.0 mm
12:03 PM 74.0°F23.3°C -- - 3.9 mph NNE6.3 kmh NNE 6.3 mph10.1 kmh 29.85 in1010.8 mb 0.00 in0.0 mm 0.00 in0.0 mm 0.00 in0.0 mm
12:09 PM 74.5°F23.6°C -- - 7.8 mph NNE12.6 kmh NNE 9.4 mph15.1 kmh 29.86 in1011.2 mb 0.00 in0.0 mm 0.00 in0.0 mm 0.00 in0.0 mm
12:14 PM 74.5°F23.6°C -- - 1.8 mph NNE2.9 kmh NNE 9.4 mph15.1 kmh 29.85 in1010.8 mb 0.00 in0.0 mm 0.00 in0.0 mm 0.00 in0.0 mm
12:20 PM 74.9°F23.8°C -- - 4.5 mph NNE7.2 kmh NNE 9.4 mph15.1 kmh 29.85 in1010.8 mb 0.00 in0.0 mm 0.00 in0.0 mm 0.00 in0.0 mm
12:26 PM 75.1°F23.9°C -- - 5.3 mph NNE8.5 kmh NNE 6.5 mph10.5 kmh 29.84 in1010.5 mb 0.00 in0.0 mm 0.00 in0.0 mm 0.00 in0.0 mm
12:32 PM 75.1°F23.9°C -- - 2.4 mph NNE3.9 kmh NNE 6.3 mph10.1 kmh 29.84 in1010.5 mb 0.00 in0.0 mm 0.00 in0.0 mm 0.00 in0.0 mm
12:39 PM 74.9°F23.8°C -- - 3.8 mph NNE6.1 kmh NNE 6.3 mph10.1 kmh 29.84 in1010.5 mb 0.00 in0.0 mm 0.00 in0.0 mm 0.00 in0.0 mm
12:44 PM 75.1°F23.9°C -- - 5.4 mph NNE8.7 kmh NNE 6.3 mph10.1 kmh 29.84 in1010.5 mb 0.00 in0.0 mm 0.00 in0.0 mm 0.00 in0.0 mm
12:49 PM 74.9°F23.8°C -- - 3.2 mph NNE5.1 kmh NNE 5.4 mph8.7 kmh 29.84 in1010.5 mb 0.00 in0.0 mm 0.00 in0.0 mm 0.00 in0.0 mm
12:56 PM 75.1°F23.9°C -- - 6.7 mph NNE10.8 kmh NNE 6.7 mph10.8 kmh 29.84 in1010.5 mb 0.00 in0.0 mm 0.00 in0.0 mm 0.00 in0.0 mm
01:01 PM 75.2°F24.0°C -- - 5.3 mph NNE8.5 kmh NNE 6.9 mph11.1 kmh 29.84 in1010.5 mb 0.00 in0.0 mm 0.00 in0.0 mm 0.00 in0.0 mm
01:06 PM 75.1°F23.9°C -- - 8.6 mph NNE13.8 kmh NNE 9.2 mph14.8 kmh 29.84 in1010.5 mb 0.00 in0.0 mm 0.00 in0.0 mm 0.00 in0.0 mm
01:11 PM 74.9°F23.8°C -- - 6.3 mph NNE10.1 kmh NNE 9.2 mph14.8 kmh 29.84 in1010.5 mb 0.00 in0.0 mm 0.00 in0.0 mm 0.00 in0.0 mm
01:16 PM 75.1°F23.9°C -- - 2.8 mph NNE4.5 kmh NNE 6.3 mph10.1 kmh 29.83 in1010.2 mb 0.00 in0.0 mm 0.00 in0.0 mm 0.00 in0.0 mm
01:23 PM 75.1°F23.9°C -- - 3.6 mph NNE5.8 kmh NNE 4.7 mph7.6 kmh 29.83 in1010.2 mb 0.00 in0.0 mm 0.00 in0.0 mm 0.00 in0.0 mm
01:29 PM 75.2°F24.0°C -- - 2.5 mph NNE4.0 kmh NNE 5.6 mph9.0 kmh 29.83 in1010.2 mb 0.00 in0.0 mm 0.00 in0.0 mm 0.00 in0.0 mm
01:34 PM 75.4°F24.1°C -- - 1.0 mph NNE1.6 kmh NNE 5.6 mph9.0 kmh 29.84 in1010.5 mb 0.00 in0.0 mm 0.00 in0.0 mm 0.00 in0.0 mm
01:40 PM 75.1°F23.9°C -- - 4.9 mph NNE7.9 kmh NNE 5.6 mph9.0 kmh 29.83 in1010.2 mb 0.00 in0.0 mm 0.00 in0.0 mm 0.00 in0.0 mm
01:46 PM 75.1°F23.9°C -- - 5.6 mph NNE9.0 kmh NNE 5.6 mph9.0 kmh 29.83 in1010.2 mb 0.00 in0.0 mm 0.00 in0.0 mm 0.00 in0.0 mm
01:51 PM 75.2°F24.0°C -- - 6.8 mph NNE10.9 kmh NNE 8.9 mph14.3 kmh 29.83 in1010.2 mb 0.00 in0.0 mm 0.00 in0.0 mm 0.00 in0.0 mm
01:56 PM 75.2°F24.0°C -- - 6.7 mph NNE10.8 kmh NNE 8.9 mph14.3 kmh 29.83 in1010.2 mb 0.00 in0.0 mm 0.00 in0.0 mm 0.00 in0.0 mm
02:02 PM 75.2°F24.0°C -- - 4.7 mph NNE7.6 kmh NNE 8.9 mph14.3 kmh 29.83 in1010.2 mb 0.00 in0.0 mm 0.00 in0.0 mm 0.00 in0.0 mm
02:07 PM 75.8°F24.3°C -- - 4.0 mph NNE6.4 kmh NNE 5.6 mph9.0 kmh 29.83 in1010.2 mb 0.00 in0.0 mm 0.00 in0.0 mm 0.00 in0.0 mm
02:12 PM 75.6°F24.2°C -- - 5.5 mph NNE8.9 kmh NNE 6.5 mph10.5 kmh 29.83 in1010.2 mb 0.00 in0.0 mm 0.00 in0.0 mm 0.00 in0.0 mm
02:17 PM 76.0°F24.4°C -- - 3.3 mph NNE5.3 kmh NNE 6.5 mph10.5 kmh 29.83 in1010.2 mb 0.00 in0.0 mm 0.00 in0.0 mm 0.00 in0.0 mm
02:23 PM 76.0°F24.4°C -- - 2.4 mph NNE3.9 kmh NNE 6.0 mph9.7 kmh 29.83 in1010.2 mb 0.00 in0.0 mm 0.00 in0.0 mm 0.00 in0.0 mm
02:28 PM 76.1°F24.5°C -- - 2.7 mph NNE4.3 kmh NNE 6.0 mph9.7 kmh 29.83 in1010.2 mb 0.00 in0.0 mm 0.00 in0.0 mm 0.00 in0.0 mm
02:34 PM 76.3°F24.6°C -- - 2.5 mph NNE4.0 kmh NNE 4.3 mph6.9 kmh 29.83 in1010.2 mb 0.00 in0.0 mm 0.00 in0.0 mm 0.00 in0.0 mm
02:40 PM 76.1°F24.5°C -- - 3.6 mph NNE5.8 kmh NNE 6.3 mph10.1 kmh 29.83 in1010.2 mb 0.00 in0.0 mm 0.00 in0.0 mm 0.00 in0.0 mm
02:45 PM 76.3°F24.6°C -- - 3.4 mph NNE5.5 kmh NNE 6.3 mph10.1 kmh 29.84 in1010.5 mb 0.00 in0.0 mm 0.00 in0.0 mm 0.00 in0.0 mm
02:50 PM 76.3°F24.6°C -- - 3.4 mph NNE5.5 kmh NNE 4.7 mph7.6 kmh 29.84 in1010.5 mb 0.00 in0.0 mm 0.00 in0.0 mm 0.00 in0.0 mm
02:56 PM 76.0°F24.4°C -- - 5.4 mph NNE8.7 kmh NNE 7.6 mph12.2 kmh 29.84 in1010.5 mb 0.00 in0.0 mm 0.00 in0.0 mm 0.00 in0.0 mm
03:01 PM 75.8°F24.3°C -- - 5.4 mph NNE8.7 kmh NNE 7.6 mph12.2 kmh 29.83 in1010.2 mb 0.00 in0.0 mm 0.00 in0.0 mm 0.00 in0.0 mm
03:06 PM 76.0°F24.4°C -- - 4.7 mph NNE7.6 kmh NNE 6.3 mph10.1 kmh 29.84 in1010.5 mb 0.00 in0.0 mm 0.00 in0.0 mm 0.00 in0.0 mm
03:12 PM 75.4°F24.1°C -- - 4.0 mph NNE6.4 kmh NNE 8.5 mph13.7 kmh 29.83 in1010.2 mb 0.00 in0.0 mm 0.00 in0.0 mm 0.00 in0.0 mm
03:17 PM 75.6°F24.2°C -- - 2.6 mph NNE4.2 kmh NNE 6.9 mph11.1 kmh 29.83 in1010.2 mb 0.00 in0.0 mm 0.00 in0.0 mm 0.00 in0.0 mm
03:23 PM 75.6°F24.2°C -- - 6.9 mph NNE11.1 kmh NNE 7.6 mph12.2 kmh 29.83 in1010.2 mb 0.00 in0.0 mm 0.00 in0.0 mm 0.00 in0.0 mm
03:28 PM 75.1°F23.9°C -- - 5.2 mph NNE8.4 kmh NNE 7.6 mph12.2 kmh 29.83 in1010.2 mb 0.00 in0.0 mm 0.00 in0.0 mm 0.00 in0.0 mm
03:33 PM 74.9°F23.8°C -- - 2.0 mph NNE3.2 kmh NNE 6.9 mph11.1 kmh 29.83 in1010.2 mb 0.00 in0.0 mm 0.00 in0.0 mm 0.00 in0.0 mm
03:39 PM 74.9°F23.8°C -- - 4.5 mph NNE7.2 kmh NNE 5.4 mph8.7 kmh 29.83 in1010.2 mb 0.00 in0.0 mm 0.00 in0.0 mm 0.00 in0.0 mm
03:45 PM 75.1°F23.9°C -- - 5.6 mph NNE9.0 kmh NNE 5.6 mph9.0 kmh 29.83 in1010.2 mb 0.00 in0.0 mm 0.00 in0.0 mm 0.00 in0.0 mm
03:51 PM 75.1°F23.9°C -- - 2.9 mph NNE4.7 kmh NNE 5.6 mph9.0 kmh 29.83 in1010.2 mb 0.00 in0.0 mm 0.00 in0.0 mm 0.00 in0.0 mm
03:56 PM 75.2°F24.0°C -- - 8.2 mph NNE13.2 kmh NNE 8.3 mph13.4 kmh 29.84 in1010.5 mb 0.00 in0.0 mm 0.00 in0.0 mm 0.00 in0.0 mm
03:59 PM 75.1°F23.9°C -- - 6.9 mph NNE11.1 kmh NNE 8.3 mph13.4 kmh 29.84 in1010.5 mb 0.00 in0.0 mm 0.00 in0.0 mm 0.00 in0.0 mm
04:04 PM 74.5°F23.6°C -- - 5.6 mph NNE9.0 kmh NNE 9.6 mph15.4 kmh 29.84 in1010.5 mb 0.00 in0.0 mm 0.00 in0.0 mm 0.00 in0.0 mm
04:09 PM 74.5°F23.6°C -- - 6.8 mph NNE10.9 kmh NNE 9.6 mph15.4 kmh 29.85 in1010.8 mb 0.00 in0.0 mm 0.00 in0.0 mm 0.00 in0.0 mm
04:14 PM 74.5°F23.6°C -- - 6.4 mph NNE10.3 kmh NNE 8.3 mph13.4 kmh 29.85 in1010.8 mb 0.00 in0.0 mm 0.00 in0.0 mm 0.00 in0.0 mm
04:19 PM 74.2°F23.4°C -- - 10.1 mph NNE16.3 kmh NNE 10.1 mph16.3 kmh 29.85 in1010.8 mb 0.00 in0.0 mm 0.00 in0.0 mm 0.00 in0.0 mm
04:25 PM 73.8°F23.2°C -- - 4.3 mph NNE6.9 kmh NNE 10.1 mph16.3 kmh 29.85 in1010.8 mb 0.00 in0.0 mm 0.00 in0.0 mm 0.00 in0.0 mm
04:31 PM 73.6°F23.1°C -- - 2.5 mph NNE4.0 kmh NNE 10.1 mph16.3 kmh 29.85 in1010.8 mb 0.00 in0.0 mm 0.00 in0.0 mm 0.00 in0.0 mm
04:36 PM 73.6°F23.1°C -- - 4.7 mph NNE7.6 kmh NNE 7.6 mph12.2 kmh 29.86 in1011.2 mb 0.00 in0.0 mm 0.00 in0.0 mm 0.00 in0.0 mm
04:41 PM 73.3°F22.9°C -- - 3.8 mph NNE6.1 kmh NNE 5.6 mph9.0 kmh 29.86 in1011.2 mb 0.00 in0.0 mm 0.00 in0.0 mm 0.00 in0.0 mm
04:47 PM 73.1°F22.8°C -- - 8.5 mph NNE13.7 kmh NNE 10.7 mph17.2 kmh 29.86 in1011.2 mb 0.00 in0.0 mm 0.00 in0.0 mm 0.00 in0.0 mm
04:52 PM 73.1°F22.8°C -- - 6.7 mph NNE10.8 kmh NNE 10.7 mph17.2 kmh 29.86 in1011.2 mb 0.00 in0.0 mm 0.00 in0.0 mm 0.00 in0.0 mm
04:58 PM 72.9°F22.7°C -- - 4.3 mph NNE6.9 kmh NNE 7.8 mph12.6 kmh 29.86 in1011.2 mb 0.00 in0.0 mm 0.00 in0.0 mm 0.00 in0.0 mm
05:03 PM 72.7°F22.6°C -- - 6.0 mph NNE9.7 kmh NNE 6.7 mph10.8 kmh 29.86 in1011.2 mb 0.00 in0.0 mm 0.00 in0.0 mm 0.00 in0.0 mm
05:09 PM 72.7°F22.6°C -- - 5.4 mph NNE8.7 kmh NNE 9.8 mph15.8 kmh 29.86 in1011.2 mb 0.00 in0.0 mm 0.00 in0.0 mm 0.00 in0.0 mm
05:15 PM 72.4°F22.4°C -- - 6.3 mph NNE10.1 kmh NNE 9.8 mph15.8 kmh 29.86 in1011.2 mb 0.00 in0.0 mm 0.00 in0.0 mm 0.00 in0.0 mm
05:20 PM 72.4°F22.4°C -- - 7.2 mph NNE11.6 kmh NNE 7.2 mph11.6 kmh 29.87 in1011.5 mb 0.00 in0.0 mm 0.00 in0.0 mm 0.00 in0.0 mm
05:26 PM 71.8°F22.1°C -- - 7.1 mph NNE11.4 kmh NNE 12.1 mph19.5 kmh 29.87 in1011.5 mb 0.00 in0.0 mm 0.00 in0.0 mm 0.00 in0.0 mm
05:31 PM 71.8°F22.1°C -- - 6.3 mph NNE10.1 kmh NNE 12.1 mph19.5 kmh 29.88 in1011.9 mb 0.00 in0.0 mm 0.00 in0.0 mm 0.00 in0.0 mm
05:36 PM 71.6°F22.0°C -- - 4.9 mph NNE7.9 kmh NNE 10.3 mph16.6 kmh 29.88 in1011.9 mb 0.00 in0.0 mm 0.00 in0.0 mm 0.00 in0.0 mm
05:41 PM 71.6°F22.0°C -- - 6.9 mph NNE11.1 kmh NNE 10.3 mph16.6 kmh 29.88 in1011.9 mb 0.00 in0.0 mm 0.00 in0.0 mm 0.00 in0.0 mm
05:47 PM 71.6°F22.0°C -- - 6.7 mph NNE10.8 kmh NNE 10.3 mph16.6 kmh 29.87 in1011.5 mb 0.00 in0.0 mm 0.00 in0.0 mm 0.00 in0.0 mm
05:52 PM 71.6°F22.0°C -- - 7.4 mph NNE11.9 kmh NNE 10.3 mph16.6 kmh 29.87 in1011.5 mb 0.00 in0.0 mm 0.00 in0.0 mm 0.00 in0.0 mm
05:59 PM 71.5°F21.9°C -- - 5.0 mph NNE8.0 kmh NNE 9.2 mph14.8 kmh 29.88 in1011.9 mb 0.00 in0.0 mm 0.00 in0.0 mm 0.00 in0.0 mm
06:05 PM 71.3°F21.8°C -- - 8.0 mph NNE12.9 kmh NNE 9.2 mph14.8 kmh 29.88 in1011.9 mb 0.00 in0.0 mm 0.00 in0.0 mm 0.00 in0.0 mm
06:12 PM 71.1°F21.7°C -- - 8.0 mph NNE12.9 kmh NNE 9.2 mph14.8 kmh 29.88 in1011.9 mb 0.00 in0.0 mm 0.00 in0.0 mm 0.00 in0.0 mm
06:17 PM 70.9°F21.6°C -- - 2.5 mph NNE4.0 kmh NNE 8.5 mph13.7 kmh 29.88 in1011.9 mb 0.00 in0.0 mm 0.00 in0.0 mm 0.00 in0.0 mm
06:23 PM 70.9°F21.6°C -- - 4.9 mph NNE7.9 kmh NNE 8.5 mph13.7 kmh 29.88 in1011.9 mb 0.00 in0.0 mm 0.00 in0.0 mm 0.00 in0.0 mm
06:28 PM 70.9°F21.6°C -- - 3.4 mph NNE5.5 kmh NNE 6.9 mph11.1 kmh 29.88 in1011.9 mb 0.00 in0.0 mm 0.00 in0.0 mm 0.00 in0.0 mm
06:33 PM 70.9°F21.6°C -- - 3.0 mph NNE4.8 kmh NNE 5.1 mph8.2 kmh 29.88 in1011.9 mb 0.00 in0.0 mm 0.00 in0.0 mm 0.00 in0.0 mm
06:38 PM 70.9°F21.6°C -- - 5.1 mph NNE8.2 kmh NNE 5.6 mph9.0 kmh 29.87 in1011.5 mb 0.00 in0.0 mm 0.00 in0.0 mm 0.00 in0.0 mm
06:43 PM 70.7°F21.5°C -- - 4.2 mph NNE6.8 kmh NNE 5.6 mph9.0 kmh 29.87 in1011.5 mb 0.00 in0.0 mm 0.00 in0.0 mm 0.00 in0.0 mm
06:51 PM 70.6°F21.4°C -- - 4.1 mph NNE6.6 kmh NNE 6.7 mph10.8 kmh 29.87 in1011.5 mb 0.00 in0.0 mm 0.00 in0.0 mm 0.00 in0.0 mm
06:57 PM 70.6°F21.4°C -- - 9.4 mph NNE15.1 kmh NNE 9.4 mph15.1 kmh 29.88 in1011.9 mb 0.00 in0.0 mm 0.00 in0.0 mm 0.00 in0.0 mm
07:02 PM 70.4°F21.3°C -- - 2.9 mph NNE4.7 kmh NNE 9.4 mph15.1 kmh 29.88 in1011.9 mb 0.00 in0.0 mm 0.00 in0.0 mm 0.00 in0.0 mm
07:08 PM 70.4°F21.3°C -- - 1.5 mph NNE2.4 kmh NNE 9.4 mph15.1 kmh 29.88 in1011.9 mb 0.00 in0.0 mm 0.00 in0.0 mm 0.00 in0.0 mm
07:13 PM 70.6°F21.4°C -- - 2.0 mph NNE3.2 kmh NNE 6.0 mph9.7 kmh 29.89 in1012.2 mb 0.00 in0.0 mm 0.00 in0.0 mm 0.00 in0.0 mm
07:18 PM 70.4°F21.3°C -- - 3.1 mph NNE5.0 kmh NNE 6.0 mph9.7 kmh 29.89 in1012.2 mb 0.00 in0.0 mm 0.00 in0.0 mm 0.00 in0.0 mm
07:23 PM 70.2°F21.2°C -- - 3.7 mph NNE6.0 kmh NNE 4.0 mph6.4 kmh 29.89 in1012.2 mb 0.00 in0.0 mm 0.00 in0.0 mm 0.00 in0.0 mm
07:28 PM 70.2°F21.2°C -- - 0.9 mph NNE1.4 kmh NNE 4.0 mph6.4 kmh 29.89 in1012.2 mb 0.00 in0.0 mm 0.00 in0.0 mm 0.00 in0.0 mm
07:33 PM 70.2°F21.2°C -- - 0.4 mph NNE0.6 kmh NNE 3.4 mph5.5 kmh 29.89 in1012.2 mb 0.00 in0.0 mm 0.00 in0.0 mm 0.00 in0.0 mm
07:38 PM 70.2°F21.2°C -- - 2.5 mph NNE4.0 kmh NNE 2.5 mph4.0 kmh 29.89 in1012.2 mb 0.00 in0.0 mm 0.00 in0.0 mm 0.00 in0.0 mm
07:44 PM 70.2°F21.2°C -- - 0.1 mph NNE0.2 kmh NNE 2.5 mph4.0 kmh 29.89 in1012.2 mb 0.00 in0.0 mm 0.00 in0.0 mm 0.00 in0.0 mm
07:52 PM 70.2°F21.2°C -- - 0.7 mph NNE1.1 kmh NNE 4.9 mph7.9 kmh 29.88 in1011.9 mb 0.00 in0.0 mm 0.00 in0.0 mm 0.00 in0.0 mm
07:57 PM 70.0°F21.1°C -- - 2.5 mph NNE4.0 kmh NNE 4.9 mph7.9 kmh 29.89 in1012.2 mb 0.00 in0.0 mm 0.00 in0.0 mm 0.00 in0.0 mm
08:02 PM 70.0°F21.1°C -- - 3.1 mph NNE5.0 kmh NNE 4.3 mph6.9 kmh 29.90 in1012.5 mb 0.00 in0.0 mm 0.00 in0.0 mm 0.00 in0.0 mm
08:07 PM 70.0°F21.1°C -- - 1.6 mph NNE2.6 kmh NNE 4.3 mph6.9 kmh 29.90 in1012.5 mb 0.00 in0.0 mm 0.00 in0.0 mm 0.00 in0.0 mm
08:13 PM 69.8°F21.0°C -- - 1.5 mph NNE2.4 kmh NNE 2.5 mph4.0 kmh 29.90 in1012.5 mb 0.00 in0.0 mm 0.00 in0.0 mm 0.00 in0.0 mm
08:19 PM 70.0°F21.1°C -- - 2.2 mph NNE3.5 kmh NNE 2.9 mph4.7 kmh 29.90 in1012.5 mb 0.00 in0.0 mm 0.00 in0.0 mm 0.00 in0.0 mm
08:24 PM 70.0°F21.1°C -- - 0.2 mph NNE0.3 kmh NNE 2.9 mph4.7 kmh 29.90 in1012.5 mb 0.00 in0.0 mm 0.00 in0.0 mm 0.00 in0.0 mm
08:30 PM 70.0°F21.1°C -- - 1.9 mph NNE3.1 kmh NNE 2.9 mph4.7 kmh 29.91 in1012.9 mb 0.00 in0.0 mm 0.00 in0.0 mm 0.00 in0.0 mm
08:35 PM 70.0°F21.1°C -- - 1.8 mph NNE2.9 kmh NNE 2.5 mph4.0 kmh 29.91 in1012.9 mb 0.00 in0.0 mm 0.00 in0.0 mm 0.00 in0.0 mm
08:41 PM 70.0°F21.1°C -- - 2.0 mph NNE3.2 kmh NNE 2.5 mph4.0 kmh 29.91 in1012.9 mb 0.00 in0.0 mm 0.00 in0.0 mm 0.00 in0.0 mm
08:46 PM 69.8°F21.0°C -- - 1.8 mph NNE2.9 kmh NNE 2.5 mph4.0 kmh 29.91 in1012.9 mb 0.00 in0.0 mm 0.00 in0.0 mm 0.00 in0.0 mm
08:51 PM 69.8°F21.0°C -- - 2.7 mph NNE4.3 kmh NNE 3.1 mph5.0 kmh 29.92 in1013.2 mb 0.00 in0.0 mm 0.00 in0.0 mm 0.00 in0.0 mm
08:56 PM 69.8°F21.0°C -- - 1.6 mph NNE2.6 kmh NNE 3.1 mph5.0 kmh 29.93 in1013.5 mb 0.00 in0.0 mm 0.00 in0.0 mm 0.00 in0.0 mm
09:02 PM 69.8°F21.0°C -- - 2.9 mph NNE4.7 kmh NNE 2.9 mph4.7 kmh 29.93 in1013.5 mb 0.00 in0.0 mm 0.00 in0.0 mm 0.00 in0.0 mm
09:07 PM 69.7°F20.9°C -- - 3.1 mph NNE5.0 kmh NNE 3.6 mph5.8 kmh 29.94 in1013.9 mb 0.00 in0.0 mm 0.00 in0.0 mm 0.00 in0.0 mm
09:13 PM 69.7°F20.9°C -- - 0.4 mph NNE0.6 kmh NNE 3.6 mph5.8 kmh 29.94 in1013.9 mb 0.00 in0.0 mm 0.00 in0.0 mm 0.00 in0.0 mm
09:18 PM 69.7°F20.9°C -- - 4.3 mph NNE6.9 kmh NNE 4.5 mph7.2 kmh 29.95 in1014.2 mb 0.00 in0.0 mm 0.00 in0.0 mm 0.00 in0.0 mm
09:24 PM 69.7°F20.9°C -- - 2.9 mph NNE4.7 kmh NNE 4.5 mph7.2 kmh 29.95 in1014.2 mb 0.00 in0.0 mm 0.00 in0.0 mm 0.00 in0.0 mm
09:29 PM 69.7°F20.9°C -- - 1.9 mph NNE3.1 kmh NNE 4.3 mph6.9 kmh 29.95 in1014.2 mb 0.00 in0.0 mm 0.00 in0.0 mm 0.00 in0.0 mm
09:34 PM 69.7°F20.9°C -- - 2.0 mph NNE3.2 kmh NNE 2.9 mph4.7 kmh 29.96 in1014.6 mb 0.00 in0.0 mm 0.00 in0.0 mm 0.00 in0.0 mm
09:40 PM 69.7°F20.9°C -- - 1.1 mph NNE1.8 kmh NNE 2.7 mph4.3 kmh 29.96 in1014.6 mb 0.00 in0.0 mm 0.00 in0.0 mm 0.00 in0.0 mm
09:46 PM 69.7°F20.9°C -- - 0.9 mph NNE1.4 kmh NNE 2.0 mph3.2 kmh 29.96 in1014.6 mb 0.00 in0.0 mm 0.00 in0.0 mm 0.00 in0.0 mm
09:51 PM 69.7°F20.9°C -- - 2.7 mph NNE4.3 kmh NNE 2.9 mph4.7 kmh 29.95 in1014.2 mb 0.00 in0.0 mm 0.00 in0.0 mm 0.00 in0.0 mm
09:56 PM 69.7°F20.9°C -- - 2.2 mph NNE3.5 kmh NNE 3.6 mph5.8 kmh 29.95 in1014.2 mb 0.00 in0.0 mm 0.00 in0.0 mm 0.00 in0.0 mm
10:00 PM 69.7°F20.9°C -- - 4.9 mph NNE7.9 kmh NNE 4.9 mph7.9 kmh 29.95 in1014.2 mb 0.00 in0.0 mm 0.00 in0.0 mm 0.00 in0.0 mm
10:05 PM 69.7°F20.9°C -- - 2.5 mph NNE4.0 kmh NNE 4.9 mph7.9 kmh 29.95 in1014.2 mb 0.00 in0.0 mm 0.00 in0.0 mm 0.00 in0.0 mm
10:11 PM 69.7°F20.9°C -- - 2.7 mph NNE4.3 kmh NNE 4.9 mph7.9 kmh 29.93 in1013.5 mb 0.00 in0.0 mm 0.00 in0.0 mm 0.00 in0.0 mm
10:16 PM 69.5°F20.8°C -- - 3.1 mph NNE5.0 kmh NNE 3.6 mph5.8 kmh 29.93 in1013.5 mb 0.01 in0.3 mm 0.12 in3.0 mm 0.01 in0.3 mm
10:21 PM 69.3°F20.7°C -- - 1.3 mph NNE2.1 kmh NNE 4.0 mph6.4 kmh 29.93 in1013.5 mb 0.01 in0.3 mm 0.00 in0.0 mm 0.01 in0.3 mm
10:27 PM 69.3°F20.7°C -- - 1.5 mph NNE2.4 kmh NNE 4.0 mph6.4 kmh 29.93 in1013.5 mb 0.01 in0.3 mm 0.00 in0.0 mm 0.01 in0.3 mm
10:32 PM 69.1°F20.6°C -- - 0.7 mph NNE1.1 kmh NNE 1.8 mph2.9 kmh 29.92 in1013.2 mb 0.01 in0.3 mm 0.00 in0.0 mm 0.01 in0.3 mm
10:37 PM 68.9°F20.5°C -- - 1.4 mph NNE2.3 kmh NNE 3.8 mph6.1 kmh 29.92 in1013.2 mb 0.01 in0.3 mm 0.00 in0.0 mm 0.01 in0.3 mm
10:42 PM 68.9°F20.5°C -- - 0.6 mph NNE1.0 kmh NNE 3.8 mph6.1 kmh 29.92 in1013.2 mb 0.01 in0.3 mm 0.00 in0.0 mm 0.01 in0.3 mm
10:49 PM 68.8°F20.4°C -- - 1.9 mph NNE3.1 kmh NNE 2.2 mph3.5 kmh 29.92 in1013.2 mb 0.01 in0.3 mm 0.00 in0.0 mm 0.01 in0.3 mm
10:55 PM 68.8°F20.4°C -- - 0.2 mph NNE0.3 kmh NNE 2.2 mph3.5 kmh 29.93 in1013.5 mb 0.01 in0.3 mm 0.00 in0.0 mm 0.01 in0.3 mm
11:00 PM 68.9°F20.5°C -- - Calm Calm 2.2 mph3.5 kmh 29.93 in1013.5 mb 0.01 in0.3 mm 0.00 in0.0 mm 0.01 in0.3 mm
11:05 PM 68.9°F20.5°C -- - 0.4 mph NNE0.6 kmh NNE 0.4 mph0.6 kmh 29.92 in1013.2 mb 0.01 in0.3 mm 0.00 in0.0 mm 0.01 in0.3 mm
11:11 PM 68.9°F20.5°C -- - 1.9 mph NNE3.1 kmh NNE 3.4 mph5.5 kmh 29.92 in1013.2 mb 0.01 in0.3 mm 0.00 in0.0 mm 0.01 in0.3 mm
11:16 PM 68.9°F20.5°C -- - 0.7 mph NNE1.1 kmh NNE 3.4 mph5.5 kmh 29.93 in1013.5 mb 0.00 in0.0 mm 0.00 in0.0 mm 0.01 in0.3 mm
11:21 PM 68.9°F20.5°C -- - 1.3 mph NNE2.1 kmh NNE 2.5 mph4.0 kmh 29.93 in1013.5 mb 0.00 in0.0 mm 0.00 in0.0 mm 0.01 in0.3 mm
11:26 PM 68.9°F20.5°C -- - 0.3 mph NNE0.5 kmh NNE 2.7 mph4.3 kmh 29.93 in1013.5 mb 0.00 in0.0 mm 0.00 in0.0 mm 0.01 in0.3 mm
11:32 PM 68.9°F20.5°C -- - 1.2 mph NNE1.9 kmh NNE 3.1 mph5.0 kmh 29.92 in1013.2 mb 0.00 in0.0 mm 0.00 in0.0 mm 0.01 in0.3 mm
11:37 PM 69.1°F20.6°C -- - 1.3 mph NNE2.1 kmh NNE 2.2 mph3.5 kmh 29.92 in1013.2 mb 0.00 in0.0 mm 0.00 in0.0 mm 0.01 in0.3 mm
11:43 PM 69.1°F20.6°C -- - 1.0 mph NNE1.6 kmh NNE 2.2 mph3.5 kmh 29.92 in1013.2 mb 0.00 in0.0 mm 0.00 in0.0 mm 0.01 in0.3 mm
11:48 PM 69.1°F20.6°C -- - 0.8 mph NNE1.3 kmh NNE 1.8 mph2.9 kmh 29.92 in1013.2 mb 0.00 in0.0 mm 0.00 in0.0 mm 0.01 in0.3 mm
11:54 PM 69.1°F20.6°C -- - 0.9 mph NNE1.4 kmh NNE 1.8 mph2.9 kmh 29.92 in1013.2 mb 0.00 in0.0 mm 0.00 in0.0 mm 0.01 in0.3 mm